Time;durP1;ratioP1;P1;durP2;ratioP2;P2;SDS_P1;SDS_P2;PMS_P1;PMS_P2;Temp;Humidity;BMP_temperature;BMP_pressure;BME280_temperature;BME280_humidity;BME280_pressure;Samples;Min_cycle;Max_cycle;Signal;HPM_P1;HPM_P2
2022/05/04 00:00:23;;;;;;;10.17;5.37;;;;;;;;;;5027584;28;20196;-72
2022/05/04 00:02:51;;;;;;;13.40;5.70;;;;;;;;;;5020324;28;20223;-72
2022/05/04 00:05:20;;;;;;;12.23;5.33;;;;;;;;;;5031289;28;20208;-71
2022/05/04 00:07:49;;;;;;;11.63;5.97;;;;;;;;;;5032013;28;20257;-72
2022/05/04 00:10:18;;;;;;;8.90;5.87;;;;;;;;;;5032726;28;20204;-71
2022/05/04 00:12:47;;;;;;;10.20;5.77;;;;;;;;;;5028819;28;20215;-72
2022/05/04 00:15:16;;;;;;;12.53;5.17;;;;;;;;;;5031390;28;20594;-72
2022/05/04 00:17:44;;;;;;;9.43;5.57;;;;;;;;;;5021552;28;20290;-72
2022/05/04 00:20:13;;;;;;;10.63;5.23;;;;;;;;;;5032912;28;20203;-72
2022/05/04 00:22:41;;;;;;;9.20;5.30;;;;;;;;;;5027176;28;20261;-72
2022/05/04 00:25:11;;;;;;;9.73;5.77;;;;;;;;;;5022986;28;20208;-71
2022/05/04 00:27:40;;;;;;;14.20;6.13;;;;;;;;;;5032045;28;20220;-71
2022/05/04 00:30:09;;;;;;;11.23;5.73;;;;;;;;;;5032819;28;20206;-72
2022/05/04 00:32:37;;;;;;;11.53;6.07;;;;;;;;;;5031497;28;20332;-72
2022/05/04 00:35:06;;;;;;;10.67;6.13;;;;;;;;;;5032664;28;20211;-72
2022/05/04 00:37:34;;;;;;;9.90;5.90;;;;;;;;;;5032654;28;20223;-72
2022/05/04 00:40:03;;;;;;;10.67;6.27;;;;;;;;;;5013538;28;20682;-72
2022/05/04 00:42:33;;;;;;;10.37;6.23;;;;;;;;;;5023590;28;20202;-72
2022/05/04 00:45:01;;;;;;;11.10;6.03;;;;;;;;;;5030357;28;20211;-71
2022/05/04 00:47:29;;;;;;;9.27;5.60;;;;;;;;;;5032050;28;20226;-72
2022/05/04 00:50:02;;;;;;;9.37;5.80;;;;;;;;;;5035220;28;20211;-71
2022/05/04 00:52:30;;;;;;;9.37;5.97;;;;;;;;;;5043682;28;20222;-72
2022/05/04 00:54:58;;;;;;;8.80;5.77;;;;;;;;;;5037034;28;20265;-72
2022/05/04 01:00:12;;;;;;;9.40;5.53;;;;;;;;;;5035109;28;20214;-71
2022/05/04 01:02:41;;;;;;;12.70;6.30;;;;;;;;;;5034499;28;20633;-72
2022/05/04 01:05:10;;;;;;;13.37;6.33;;;;;;;;;;5031110;28;20301;-72
2022/05/04 01:07:39;;;;;;;11.27;5.73;;;;;;;;;;5035704;28;20236;-71
2022/05/04 01:10:08;;;;;;;11.37;5.57;;;;;;;;;;5033998;28;20664;-71
2022/05/04 01:12:38;;;;;;;9.77;5.77;;;;;;;;;;5034811;28;20230;-72
2022/05/04 01:15:07;;;;;;;11.77;6.00;;;;;;;;;;5036305;28;20222;-71
2022/05/04 01:17:37;;;;;;;9.23;5.60;;;;;;;;;;5036292;28;20226;-72
2022/05/04 01:20:08;;;;;;;8.63;5.57;;;;;;;;;;5036747;28;20214;-71
2022/05/04 01:22:38;;;;;;;9.87;5.57;;;;;;;;;;5035557;28;20209;-71
2022/05/04 01:25:07;;;;;;;9.20;5.80;;;;;;;;;;5034916;28;20617;-72
2022/05/04 01:27:35;;;;;;;8.53;5.43;;;;;;;;;;5035138;28;20231;-72
2022/05/04 01:30:04;;;;;;;8.90;5.53;;;;;;;;;;5035643;28;20210;-72
2022/05/04 01:32:33;;;;;;;9.53;5.83;;;;;;;;;;5028810;28;20289;-71
2022/05/04 01:35:01;;;;;;;8.87;5.80;;;;;;;;;;5032257;28;20218;-71
2022/05/04 01:37:29;;;;;;;8.13;5.37;;;;;;;;;;5035146;28;20697;-71
2022/05/04 01:39:59;;;;;;;8.33;5.43;;;;;;;;;;5034155;28;20605;-72
2022/05/04 01:42:27;;;;;;;10.50;5.90;;;;;;;;;;5034619;28;20198;-72
2022/05/04 01:44:56;;;;;;;8.73;5.60;;;;;;;;;;5034519;28;20309;-72
2022/05/04 01:47:24;;;;;;;9.77;5.60;;;;;;;;;;5032842;28;20226;-72
2022/05/04 01:49:53;;;;;;;9.83;6.03;;;;;;;;;;5035036;28;20666;-71
2022/05/04 01:52:22;;;;;;;9.33;5.87;;;;;;;;;;5034098;28;20227;-72
2022/05/04 01:54:50;;;;;;;9.07;5.47;;;;;;;;;;5034166;28;20203;-73
2022/05/04 01:57:20;;;;;;;10.80;5.63;;;;;;;;;;5035362;28;20234;-72
2022/05/04 01:59:49;;;;;;;12.83;6.13;;;;;;;;;;5034478;28;20202;-71
2022/05/04 02:02:18;;;;;;;10.67;5.70;;;;;;;;;;5033737;28;20583;-72
2022/05/04 02:04:46;;;;;;;12.90;5.70;;;;;;;;;;5032395;28;20245;-71
2022/05/04 02:07:17;;;;;;;9.63;5.80;;;;;;;;;;5031487;28;20223;-72
2022/05/04 02:09:46;;;;;;;10.40;5.83;;;;;;;;;;5032746;28;20233;-72
2022/05/04 02:12:15;;;;;;;12.07;6.00;;;;;;;;;;5028385;28;20245;-72
2022/05/04 02:14:45;;;;;;;12.37;6.20;;;;;;;;;;5039677;28;20212;-72
2022/05/04 02:17:14;;;;;;;8.37;5.80;;;;;;;;;;5031863;28;20228;-71
2022/05/04 02:19:42;;;;;;;8.97;5.50;;;;;;;;;;5031462;28;20211;-72
2022/05/04 02:22:10;;;;;;;9.47;5.87;;;;;;;;;;5033650;28;20208;-72
2022/05/04 02:24:39;;;;;;;7.23;5.50;;;;;;;;;;5033041;28;20685;-72
2022/05/04 02:27:07;;;;;;;10.10;5.63;;;;;;;;;;5034485;28;20576;-72
2022/05/04 02:29:36;;;;;;;11.17;5.97;;;;;;;;;;5033565;28;20211;-72
2022/05/04 02:32:06;;;;;;;10.43;6.20;;;;;;;;;;5034422;28;20263;-72
2022/05/04 02:37:54;;;;;;;7.93;5.87;;;;;;;;;;5033040;28;20318;-71
2022/05/04 02:40:10;;;;;;;10.17;6.03;;;;;;;;;;5031653;28;20675;-72
2022/05/04 02:42:39;;;;;;;10.93;6.33;;;;;;;;;;5032420;28;20204;-72
2022/05/04 02:45:08;;;;;;;10.13;5.80;;;;;;;;;;5033173;28;20206;-72
2022/05/04 02:47:39;;;;;;;9.70;6.00;;;;;;;;;;5033160;28;20289;-72
2022/05/04 02:50:14;;;;;;;8.50;6.00;;;;;;;;;;5021526;28;20205;-72
2022/05/04 02:52:43;;;;;;;8.73;5.67;;;;;;;;;;5033848;28;20237;-71
2022/05/04 02:55:11;;;;;;;11.17;5.80;;;;;;;;;;5026756;28;20202;-72
2022/05/04 02:57:40;;;;;;;9.43;5.80;;;;;;;;;;5033023;28;20237;-72
2022/05/04 03:00:09;;;;;;;12.43;5.70;;;;;;;;;;5033834;28;20225;-71
2022/05/04 03:02:38;;;;;;;12.27;6.00;;;;;;;;;;5032419;28;20233;-71
2022/05/04 03:05:08;;;;;;;10.60;6.50;;;;;;;;;;5029257;28;20210;-72
2022/05/04 03:07:37;;;;;;;11.00;6.57;;;;;;;;;;5034510;28;20229;-71
2022/05/04 03:10:06;;;;;;;13.23;6.50;;;;;;;;;;5030424;28;20215;-73
2022/05/04 03:12:34;;;;;;;12.17;6.50;;;;;;;;;;5030905;28;20219;-71
2022/05/04 03:15:03;;;;;;;10.27;5.77;;;;;;;;;;5032944;28;20611;-72
2022/05/04 03:17:31;;;;;;;12.93;6.03;;;;;;;;;;5033519;28;20226;-71
2022/05/04 03:20:01;;;;;;;10.73;6.07;;;;;;;;;;5024099;28;20238;-72
2022/05/04 03:22:32;;;;;;;13.03;6.70;;;;;;;;;;5028182;28;20202;-71
2022/05/04 03:25:01;;;;;;;11.87;6.20;;;;;;;;;;5032338;28;20658;-71
2022/05/04 03:27:29;;;;;;;12.97;6.60;;;;;;;;;;5032760;28;20227;-72
2022/05/04 03:30:03;;;;;;;8.93;6.27;;;;;;;;;;5033223;28;20237;-71
2022/05/04 03:32:31;;;;;;;9.07;5.90;;;;;;;;;;5032693;28;20207;-71
2022/05/04 03:35:03;;;;;;;13.70;6.73;;;;;;;;;;5033799;28;20222;-72
2022/05/04 03:37:32;;;;;;;14.03;6.53;;;;;;;;;;5032846;28;20226;-72
2022/05/04 03:40:00;;;;;;;11.43;7.07;;;;;;;;;;5031812;28;20204;-71
2022/05/04 03:42:28;;;;;;;10.73;6.57;;;;;;;;;;5031019;28;20264;-72
2022/05/04 03:44:57;;;;;;;13.60;7.00;;;;;;;;;;5033207;28;20214;-72
2022/05/04 03:47:25;;;;;;;10.73;6.60;;;;;;;;;;5032202;28;20599;-72
2022/05/04 03:49:54;;;;;;;9.83;6.17;;;;;;;;;;5030057;28;20206;-72
2022/05/04 03:52:24;;;;;;;12.00;6.17;;;;;;;;;;5033237;28;20567;-72
2022/05/04 03:54:53;;;;;;;13.40;6.27;;;;;;;;;;5032814;28;20606;-71
2022/05/04 03:57:21;;;;;;;11.67;6.30;;;;;;;;;;5032749;28;20696;-72
2022/05/04 03:59:50;;;;;;;9.83;6.10;;;;;;;;;;5025084;28;20210;-71
2022/05/04 04:02:19;;;;;;;14.13;7.17;;;;;;;;;;5036708;28;20292;-74
2022/05/04 04:04:48;;;;;;;14.63;7.47;;;;;;;;;;5036110;28;20212;-71
2022/05/04 04:07:16;;;;;;;17.00;7.57;;;;;;;;;;5033367;28;20279;-72
2022/05/04 04:09:46;;;;;;;20.13;8.10;;;;;;;;;;5032152;28;20205;-73
2022/05/04 04:12:14;;;;;;;14.03;7.20;;;;;;;;;;5032129;28;20205;-72
2022/05/04 04:14:43;;;;;;;17.33;8.10;;;;;;;;;;5021145;28;20717;-72
2022/05/04 04:17:11;;;;;;;14.53;7.53;;;;;;;;;;5034617;28;20677;-72
2022/05/04 04:19:39;;;;;;;18.53;7.83;;;;;;;;;;5026746;28;20570;-72
2022/05/04 04:22:07;;;;;;;11.80;7.47;;;;;;;;;;5033118;28;20227;-71
2022/05/04 04:24:35;;;;;;;14.67;7.10;;;;;;;;;;5032115;28;20205;-71
2022/05/04 04:27:05;;;;;;;14.53;7.33;;;;;;;;;;5043576;28;20295;-72
2022/05/04 04:29:34;;;;;;;12.87;6.43;;;;;;;;;;5031347;28;20204;-72
2022/05/04 04:32:02;;;;;;;15.77;7.23;;;;;;;;;;5020492;28;20197;-72
2022/05/04 04:34:31;;;;;;;14.70;7.20;;;;;;;;;;5024292;28;20229;-72
2022/05/04 04:37:00;;;;;;;15.67;7.27;;;;;;;;;;5030770;28;20221;-71
2022/05/04 04:39:28;;;;;;;11.83;7.43;;;;;;;;;;5031881;28;20211;-73
2022/05/04 04:41:57;;;;;;;12.60;7.03;;;;;;;;;;5031110;28;20233;-71
2022/05/04 04:44:27;;;;;;;15.03;7.30;;;;;;;;;;5035779;28;20203;-74
2022/05/04 04:46:55;;;;;;;19.40;8.07;;;;;;;;;;5030330;28;20287;-74
2022/05/04 04:49:25;;;;;;;11.50;6.80;;;;;;;;;;5023573;28;20284;-71
2022/05/04 04:51:53;;;;;;;18.27;7.13;;;;;;;;;;5028260;28;20265;-73
2022/05/04 04:54:22;;;;;;;15.20;7.40;;;;;;;;;;5032334;28;20225;-74
2022/05/04 04:56:50;;;;;;;11.80;7.47;;;;;;;;;;5033102;28;20224;-73
2022/05/04 04:59:19;;;;;;;14.30;7.70;;;;;;;;;;5032400;28;20215;-74
2022/05/04 05:01:49;;;;;;;14.67;7.67;;;;;;;;;;5033267;28;20206;-74
2022/05/04 05:04:17;;;;;;;18.57;7.40;;;;;;;;;;5034146;28;20278;-74
2022/05/04 05:06:46;;;;;;;16.13;7.93;;;;;;;;;;5024174;28;20793;-74
2022/05/04 05:09:14;;;;;;;14.73;7.07;;;;;;;;;;5029287;28;20200;-74
2022/05/04 05:11:43;;;;;;;14.10;7.17;;;;;;;;;;5033448;28;20207;-73
2022/05/04 05:16:58;;;;;;;12.17;6.87;;;;;;;;;;5032071;28;20220;-74
2022/05/04 05:19:27;;;;;;;16.47;7.13;;;;;;;;;;5031445;28;20687;-73
2022/05/04 05:21:55;;;;;;;15.90;6.63;;;;;;;;;;5042452;28;20206;-74
2022/05/04 05:24:24;;;;;;;15.47;7.20;;;;;;;;;;5034993;28;20205;-73
2022/05/04 05:26:52;;;;;;;15.27;7.40;;;;;;;;;;5031831;28;20211;-74
2022/05/04 05:29:21;;;;;;;14.10;7.20;;;;;;;;;;5031732;28;20211;-74
2022/05/04 05:31:49;;;;;;;15.53;6.70;;;;;;;;;;5032443;28;20203;-74
2022/05/04 05:34:19;;;;;;;14.00;7.07;;;;;;;;;;5031779;28;20360;-74
2022/05/04 05:36:47;;;;;;;14.10;6.43;;;;;;;;;;5028279;28;20262;-74
2022/05/04 05:39:16;;;;;;;11.17;5.90;;;;;;;;;;5035320;28;20269;-74
2022/05/04 05:41:44;;;;;;;10.53;5.43;;;;;;;;;;5034720;28;20211;-74
2022/05/04 05:44:13;;;;;;;10.07;4.80;;;;;;;;;;5027338;28;20679;-73
2022/05/04 05:46:41;;;;;;;17.87;5.60;;;;;;;;;;5035228;28;20212;-74
2022/05/04 05:49:10;;;;;;;8.13;4.93;;;;;;;;;;5035594;28;20210;-74
2022/05/04 05:51:40;;;;;;;9.07;5.00;;;;;;;;;;5035999;28;20204;-74
2022/05/04 05:54:08;;;;;;;8.37;4.83;;;;;;;;;;5029117;28;20250;-73
2022/05/04 05:56:37;;;;;;;14.13;5.40;;;;;;;;;;5036234;28;20265;-74
2022/05/04 05:59:05;;;;;;;11.33;5.50;;;;;;;;;;5035929;28;20254;-74
2022/05/04 06:01:34;;;;;;;9.00;4.93;;;;;;;;;;5026208;28;20615;-74
2022/05/04 06:04:02;;;;;;;11.57;5.00;;;;;;;;;;5030573;28;20613;-74
2022/05/04 06:06:31;;;;;;;11.67;5.60;;;;;;;;;;5035744;28;20207;-73
2022/05/04 06:09:00;;;;;;;10.17;4.70;;;;;;;;;;5034295;28;20223;-74
2022/05/04 06:11:29;;;;;;;9.43;4.60;;;;;;;;;;5035771;28;20666;-74
2022/05/04 06:13:58;;;;;;;13.47;4.90;;;;;;;;;;5030225;28;20211;-74
2022/05/04 06:16:26;;;;;;;10.93;5.00;;;;;;;;;;5015854;28;20224;-74
2022/05/04 06:18:55;;;;;;;11.77;4.80;;;;;;;;;;5028511;28;20251;-74
2022/05/04 06:21:23;;;;;;;16.40;5.13;;;;;;;;;;5035745;28;20258;-74
2022/05/04 06:23:52;;;;;;;10.23;5.00;;;;;;;;;;5034832;28;20770;-74
2022/05/04 06:26:23;;;;;;;11.47;5.10;;;;;;;;;;5034528;28;20211;-74
2022/05/04 06:28:51;;;;;;;8.80;4.60;;;;;;;;;;5034896;28;20228;-74
2022/05/04 06:34:10;;;;;;;7.70;4.40;;;;;;;;;;5034141;28;20222;-74
2022/05/04 06:36:40;;;;;;;13.77;4.43;;;;;;;;;;5034157;28;20317;-74
2022/05/04 06:39:09;;;;;;;7.73;4.33;;;;;;;;;;5035218;28;20209;-74
2022/05/04 06:41:40;;;;;;;11.30;4.30;;;;;;;;;;5035070;28;20212;-74
2022/05/04 06:44:09;;;;;;;9.53;4.40;;;;;;;;;;5034697;28;20212;-74
2022/05/04 06:46:41;;;;;;;12.63;4.03;;;;;;;;;;5033735;28;20208;-74
2022/05/04 06:49:11;;;;;;;10.17;3.80;;;;;;;;;;5034500;28;20857;-73
2022/05/04 06:51:39;;;;;;;8.77;3.93;;;;;;;;;;5034730;28;21543;-74
2022/05/04 06:54:08;;;;;;;6.77;3.73;;;;;;;;;;5034550;28;20207;-74
2022/05/04 06:56:53;;;;;;;7.90;3.70;;;;;;;;;;5034615;28;20251;-74
2022/05/04 06:59:21;;;;;;;6.73;4.13;;;;;;;;;;5034910;28;20215;-74
2022/05/04 07:01:50;;;;;;;9.83;3.57;;;;;;;;;;5034685;28;20608;-74
2022/05/04 07:04:18;;;;;;;12.13;4.00;;;;;;;;;;5034469;28;20211;-74
2022/05/04 07:06:47;;;;;;;8.47;4.27;;;;;;;;;;5033684;28;20215;-73
2022/05/04 07:09:15;;;;;;;8.60;3.63;;;;;;;;;;5034150;28;20211;-74
2022/05/04 07:11:44;;;;;;;9.57;3.80;;;;;;;;;;5034188;28;20671;-74
2022/05/04 07:14:19;;;;;;;10.23;4.20;;;;;;;;;;5033401;28;20204;-75
2022/05/04 07:16:48;;;;;;;11.33;4.40;;;;;;;;;;5034735;28;20281;-74
2022/05/04 07:19:16;;;;;;;11.90;4.20;;;;;;;;;;5034353;28;20206;-74
2022/05/04 07:21:46;;;;;;;9.33;3.70;;;;;;;;;;5034102;28;20204;-74
2022/05/04 07:24:14;;;;;;;11.30;3.83;;;;;;;;;;5031806;28;20203;-74
2022/05/04 07:26:43;;;;;;;10.27;3.80;;;;;;;;;;5034034;28;20215;-74
2022/05/04 07:29:12;;;;;;;7.93;3.73;;;;;;;;;;5034988;28;20231;-75
2022/05/04 07:31:43;;;;;;;8.83;3.70;;;;;;;;;;5034758;28;20230;-74
2022/05/04 07:34:14;;;;;;;9.43;3.90;;;;;;;;;;5033297;28;20568;-74
2022/05/04 07:36:42;;;;;;;12.67;3.77;;;;;;;;;;5034003;28;20234;-73
2022/05/04 07:42:21;;;;;;;8.03;3.50;;;;;;;;;;5032966;28;20242;-73
2022/05/04 07:44:50;;;;;;;8.37;3.43;;;;;;;;;;5013897;28;20204;-73
2022/05/04 07:47:26;;;;;;;10.47;3.50;;;;;;;;;;5015250;28;20224;-74
2022/05/04 07:49:55;;;;;;;8.13;3.80;;;;;;;;;;5033410;28;20200;-74
2022/05/04 07:52:24;;;;;;;8.50;3.63;;;;;;;;;;5033756;28;20203;-74
2022/05/04 07:54:52;;;;;;;8.80;3.47;;;;;;;;;;5033432;28;20698;-74
2022/05/04 07:57:22;;;;;;;6.77;3.60;;;;;;;;;;5033061;28;20228;-73
2022/05/04 08:05:22;;;;;;;5.53;2.80;;;;;;;;;;5031973;28;20207;-74
2022/05/04 08:07:50;;;;;;;8.23;3.07;;;;;;;;;;5033504;28;20250;-73
2022/05/04 08:10:19;;;;;;;6.67;3.00;;;;;;;;;;5033821;28;20212;-75
2022/05/04 08:12:47;;;;;;;7.60;3.07;;;;;;;;;;5032986;28;20651;-74
2022/05/04 08:15:15;;;;;;;8.43;3.10;;;;;;;;;;5033286;28;20270;-75
2022/05/04 08:17:46;;;;;;;8.17;3.20;;;;;;;;;;5032878;28;20239;-73
2022/05/04 08:20:14;;;;;;;6.37;2.53;;;;;;;;;;5033609;28;20225;-74
2022/05/04 08:22:43;;;;;;;6.73;3.13;;;;;;;;;;5032417;28;20238;-73
2022/05/04 08:25:12;;;;;;;7.97;3.10;;;;;;;;;;5033579;28;20211;-74
2022/05/04 08:27:40;;;;;;;7.00;2.73;;;;;;;;;;5033432;28;20219;-74
2022/05/04 08:30:09;;;;;;;6.47;3.20;;;;;;;;;;5034132;28;20199;-74
2022/05/04 08:32:37;;;;;;;6.43;2.60;;;;;;;;;;5032750;28;20223;-73
2022/05/04 08:35:09;;;;;;;7.10;2.97;;;;;;;;;;5033086;28;20659;-73
2022/05/04 08:37:38;;;;;;;5.07;2.90;;;;;;;;;;5032992;28;20278;-73
2022/05/04 08:40:08;;;;;;;7.53;3.20;;;;;;;;;;5033235;28;20207;-73
2022/05/04 08:42:40;;;;;;;9.53;2.97;;;;;;;;;;5032985;28;20207;-74
2022/05/04 08:45:11;;;;;;;5.70;2.87;;;;;;;;;;5033017;28;20651;-74
2022/05/04 08:47:40;;;;;;;7.30;2.70;;;;;;;;;;5033135;28;20258;-74
2022/05/04 08:50:14;;;;;;;7.23;3.23;;;;;;;;;;5033187;28;20188;-73
2022/05/04 08:52:51;;;;;;;9.43;3.27;;;;;;;;;;5033250;28;20596;-73
2022/05/04 08:55:20;;;;;;;7.07;2.83;;;;;;;;;;5033173;28;20556;-74
2022/05/04 08:57:48;;;;;;;7.20;3.20;;;;;;;;;;5032353;28;20231;-74
2022/05/04 09:00:18;;;;;;;8.30;3.07;;;;;;;;;;5033158;28;20617;-74
2022/05/04 09:02:46;;;;;;;7.70;2.83;;;;;;;;;;5032661;28;20203;-74
2022/05/04 09:05:17;;;;;;;7.13;3.30;;;;;;;;;;5032944;28;20222;-74
2022/05/04 09:07:46;;;;;;;6.73;3.07;;;;;;;;;;5032499;28;20850;-74
2022/05/04 09:10:19;;;;;;;6.87;3.00;;;;;;;;;;5034749;28;20588;-74
2022/05/04 09:12:50;;;;;;;4.67;2.77;;;;;;;;;;5036977;28;20215;-73
2022/05/04 09:15:23;;;;;;;7.70;3.30;;;;;;;;;;5036773;28;20300;-73
2022/05/04 09:17:58;;;;;;;6.07;3.03;;;;;;;;;;5036207;28;20645;-74
2022/05/04 09:23:16;;;;;;;6.20;2.70;;;;;;;;;;5036054;28;20204;-74
2022/05/04 09:25:45;;;;;;;7.77;3.13;;;;;;;;;;5036757;28;20218;-74
2022/05/04 09:28:14;;;;;;;7.63;3.20;;;;;;;;;;5028188;28;20217;-73
2022/05/04 09:30:47;;;;;;;10.17;3.07;;;;;;;;;;5016649;28;20204;-74
2022/05/04 09:33:19;;;;;;;8.03;3.00;;;;;;;;;;5023584;28;20261;-73
2022/05/04 09:35:49;;;;;;;5.33;3.00;;;;;;;;;;5016633;28;20204;-73
2022/05/04 09:46:44;;;;;;;6.17;3.10;;;;;;;;;;5036329;28;20282;-74
2022/05/04 09:49:16;;;;;;;9.73;3.63;;;;;;;;;;5035531;28;20203;-75
2022/05/04 09:51:48;;;;;;;6.90;2.87;;;;;;;;;;5035754;28;20208;-74
2022/05/04 09:54:17;;;;;;;7.67;3.37;;;;;;;;;;5035571;28;20206;-75
2022/05/04 09:56:47;;;;;;;7.40;3.15;;;;;;;;;;5035852;28;20722;-73
2022/05/04 09:59:16;;;;;;;6.47;3.13;;;;;;;;;;5034994;28;20721;-73
2022/05/04 10:01:45;;;;;;;5.72;3.28;;;;;;;;;;5035655;28;20199;-74
2022/05/04 10:04:14;;;;;;;9.43;3.60;;;;;;;;;;5034299;28;20258;-74
2022/05/04 10:06:43;;;;;;;5.72;3.13;;;;;;;;;;5035293;28;20547;-74
2022/05/04 10:09:13;;;;;;;7.47;2.85;;;;;;;;;;5035711;28;20238;-73
2022/05/04 10:11:42;;;;;;;9.10;3.33;;;;;;;;;;5036231;28;20245;-74
2022/05/04 10:14:12;;;;;;;5.50;3.20;;;;;;;;;;5035010;28;20208;-74
2022/05/04 10:16:43;;;;;;;7.88;3.28;;;;;;;;;;5035473;28;20214;-73
2022/05/04 10:19:15;;;;;;;5.50;3.35;;;;;;;;;;5035281;28;20204;-74
2022/05/04 10:21:47;;;;;;;8.95;4.00;;;;;;;;;;5035562;28;20207;-74
2022/05/04 10:24:18;;;;;;;6.82;3.40;;;;;;;;;;5034778;28;20204;-74
2022/05/04 10:26:49;;;;;;;7.45;3.53;;;;;;;;;;5035574;28;20207;-74
2022/05/04 10:32:29;;;;;;;6.50;3.35;;;;;;;;;;5015581;28;20196;-73
2022/05/04 10:35:10;;;;;;;5.82;3.30;;;;;;;;;;5029425;28;20235;-74
2022/05/04 10:37:53;;;;;;;6.13;3.22;;;;;;;;;;5034732;28;20224;-73
2022/05/04 10:40:26;;;;;;;6.03;3.60;;;;;;;;;;5035457;28;20203;-73
2022/05/04 10:42:56;;;;;;;8.93;3.88;;;;;;;;;;5034883;28;20728;-73
2022/05/04 10:45:25;;;;;;;7.68;3.63;;;;;;;;;;5034748;28;20208;-73
2022/05/04 10:47:53;;;;;;;7.85;3.55;;;;;;;;;;5032187;28;20215;-74
2022/05/04 10:50:22;;;;;;;5.57;3.28;;;;;;;;;;5035203;28;20216;-74
2022/05/04 10:52:51;;;;;;;8.98;3.63;;;;;;;;;;5035169;28;20613;-73
2022/05/04 10:55:20;;;;;;;8.02;3.45;;;;;;;;;;5034973;28;20609;-74
2022/05/04 10:57:49;;;;;;;6.40;3.17;;;;;;;;;;5034654;28;20620;-73
2022/05/04 11:00:58;;;;;;;6.75;3.63;;;;;;;;;;5034234;28;20295;-73
2022/05/04 11:03:27;;;;;;;8.88;4.22;;;;;;;;;;5033611;28;20250;-74
2022/05/04 11:05:56;;;;;;;6.93;4.13;;;;;;;;;;5034805;28;20226;-74
2022/05/04 11:08:27;;;;;;;6.32;3.63;;;;;;;;;;5034430;28;20219;-74
2022/05/04 11:10:55;;;;;;;9.60;4.32;;;;;;;;;;5034410;28;20668;-73
2022/05/04 11:13:25;;;;;;;6.65;3.88;;;;;;;;;;5034476;28;20200;-74
2022/05/04 11:15:54;;;;;;;9.48;4.15;;;;;;;;;;5034342;28;20291;-74
2022/05/04 11:18:23;;;;;;;5.80;4.15;;;;;;;;;;5033742;28;20227;-73
2022/05/04 11:20:52;;;;;;;8.10;4.30;;;;;;;;;;5034603;28;20215;-74
2022/05/04 11:23:24;;;;;;;7.47;4.68;;;;;;;;;;5034041;28;20204;-73
2022/05/04 11:25:52;;;;;;;11.20;4.53;;;;;;;;;;5034198;28;20242;-73
2022/05/04 11:28:21;;;;;;;10.13;4.47;;;;;;;;;;5034054;28;20218;-73
2022/05/04 11:30:52;;;;;;;9.63;4.80;;;;;;;;;;5028572;28;20254;-73
2022/05/04 11:33:21;;;;;;;11.38;5.18;;;;;;;;;;5021241;28;20226;-74
2022/05/04 11:35:54;;;;;;;6.03;4.72;;;;;;;;;;5034334;28;20231;-73
2022/05/04 11:38:23;;;;;;;10.65;4.95;;;;;;;;;;5033354;28;20242;-73
2022/05/04 11:40:52;;;;;;;8.07;4.88;;;;;;;;;;5032189;28;20208;-73
2022/05/04 11:43:27;;;;;;;10.38;4.70;;;;;;;;;;5023225;28;20204;-73
2022/05/04 11:45:57;;;;;;;10.18;5.47;;;;;;;;;;5033971;28;20218;-73
2022/05/04 11:48:27;;;;;;;9.95;4.97;;;;;;;;;;5032805;28;20212;-73
2022/05/04 11:50:55;;;;;;;9.75;5.35;;;;;;;;;;5032964;28;20203;-73
2022/05/04 11:53:24;;;;;;;8.13;4.78;;;;;;;;;;5032656;28;20682;-74
2022/05/04 11:55:52;;;;;;;9.88;4.70;;;;;;;;;;5033721;28;20203;-74
2022/05/04 11:58:21;;;;;;;9.02;5.20;;;;;;;;;;5033079;28;20228;-73
2022/05/04 12:00:49;;;;;;;11.00;5.43;;;;;;;;;;5033540;28;20686;-74
2022/05/04 12:03:19;;;;;;;7.85;5.35;;;;;;;;;;5032811;28;20655;-74
2022/05/04 12:05:47;;;;;;;9.57;5.10;;;;;;;;;;5033723;28;20278;-73
2022/05/04 12:08:17;;;;;;;12.90;5.95;;;;;;;;;;5033531;28;20270;-74
2022/05/04 12:10:49;;;;;;;10.93;5.82;;;;;;;;;;5021140;28;20204;-73
2022/05/04 12:13:23;;;;;;;7.70;5.68;;;;;;;;;;5029027;28;20204;-73
2022/05/04 12:15:54;;;;;;;11.00;5.75;;;;;;;;;;5031929;28;20647;-75
2022/05/04 12:18:28;;;;;;;11.05;5.15;;;;;;;;;;5030648;28;20228;-74
2022/05/04 12:20:56;;;;;;;11.18;6.03;;;;;;;;;;5029483;28;20733;-74
2022/05/04 12:23:25;;;;;;;10.57;5.53;;;;;;;;;;5027017;28;20200;-74
2022/05/04 12:25:55;;;;;;;9.18;5.65;;;;;;;;;;5031733;28;20214;-74
2022/05/04 12:28:23;;;;;;;9.82;5.95;;;;;;;;;;5025323;28;20224;-73
2022/05/04 12:33:40;;;;;;;11.07;5.75;;;;;;;;;;5030222;28;20839;-73
2022/05/04 12:36:09;;;;;;;6.60;5.43;;;;;;;;;;5025154;28;20614;-73
2022/05/04 12:38:38;;;;;;;8.45;5.78;;;;;;;;;;5031572;28;20629;-74
2022/05/04 12:41:08;;;;;;;9.77;5.72;;;;;;;;;;5031918;28;20204;-74
2022/05/04 12:43:37;;;;;;;9.77;6.00;;;;;;;;;;5032695;28;20210;-74
2022/05/04 12:46:09;;;;;;;10.80;6.30;;;;;;;;;;5037028;28;20204;-74
2022/05/04 12:48:38;;;;;;;7.78;5.90;;;;;;;;;;5036308;28;20709;-74
2022/05/04 12:51:08;;;;;;;9.68;6.00;;;;;;;;;;5036559;28;20208;-75
2022/05/04 12:53:39;;;;;;;9.60;5.82;;;;;;;;;;5036287;28;20580;-73
2022/05/04 12:58:54;;;;;;;11.32;6.20;;;;;;;;;;5030255;28;20231;-74
2022/05/04 13:01:24;;;;;;;11.55;6.65;;;;;;;;;;5035322;28;20215;-73
2022/05/04 13:03:52;;;;;;;7.68;5.88;;;;;;;;;;5034818;28;20200;-73
2022/05/04 13:06:22;;;;;;;9.40;6.28;;;;;;;;;;5035892;28;20199;-74
2022/05/04 13:08:51;;;;;;;11.88;6.63;;;;;;;;;;5033814;28;20273;-74
2022/05/04 13:11:20;;;;;;;10.90;6.68;;;;;;;;;;5032742;28;20203;-72
2022/05/04 13:13:48;;;;;;;9.85;6.32;;;;;;;;;;5033319;28;20199;-74
2022/05/04 13:16:16;;;;;;;9.30;6.68;;;;;;;;;;5036674;28;20204;-73
2022/05/04 13:18:45;;;;;;;11.50;6.65;;;;;;;;;;5034386;28;20223;-74
2022/05/04 13:21:15;;;;;;;9.65;6.43;;;;;;;;;;5036479;28;20208;-74
2022/05/04 13:23:45;;;;;;;10.77;6.88;;;;;;;;;;5033694;28;20204;-72
2022/05/04 13:26:14;;;;;;;9.23;7.05;;;;;;;;;;5030480;28;20204;-73
2022/05/04 13:28:43;;;;;;;9.40;7.43;;;;;;;;;;5035415;28;20223;-73
2022/05/04 13:31:12;;;;;;;8.40;6.32;;;;;;;;;;5032732;28;20204;-74
2022/05/04 13:33:41;;;;;;;7.65;6.50;;;;;;;;;;5027551;28;20215;-75
2022/05/04 13:36:10;;;;;;;8.35;6.30;;;;;;;;;;5035416;28;20290;-73
2022/05/04 13:38:38;;;;;;;10.85;6.43;;;;;;;;;;5033038;28;20302;-73
2022/05/04 13:41:08;;;;;;;11.40;6.75;;;;;;;;;;5033680;28;20227;-73
2022/05/04 13:43:36;;;;;;;8.85;5.70;;;;;;;;;;5031973;28;20219;-74
2022/05/04 13:46:05;;;;;;;10.10;6.10;;;;;;;;;;5032279;28;20246;-74
2022/05/04 13:48:35;;;;;;;12.13;7.32;;;;;;;;;;5031593;28;20231;-73
2022/05/04 13:53:49;;;;;;;12.05;7.07;;;;;;;;;;5032496;28;20211;-73
2022/05/04 13:56:19;;;;;;;8.20;6.57;;;;;;;;;;5031256;28;20537;-73
2022/05/04 13:58:48;;;;;;;8.18;6.18;;;;;;;;;;5029747;28;20230;-74
2022/05/04 14:01:16;;;;;;;7.75;6.18;;;;;;;;;;5023932;28;20259;-73
2022/05/04 14:03:45;;;;;;;8.43;6.80;;;;;;;;;;5029228;28;20195;-74
2022/05/04 14:06:15;;;;;;;10.43;6.28;;;;;;;;;;5033386;28;20688;-74
2022/05/04 14:08:43;;;;;;;10.15;7.00;;;;;;;;;;5027088;28;20227;-75
2022/05/04 14:11:15;;;;;;;9.55;6.38;;;;;;;;;;5033853;28;20211;-73
2022/05/04 14:13:46;;;;;;;9.60;6.30;;;;;;;;;;5030363;28;20714;-72
2022/05/04 14:16:15;;;;;;;10.38;6.50;;;;;;;;;;5033491;28;20211;-73
2022/05/04 14:18:43;;;;;;;9.18;6.72;;;;;;;;;;5032685;28;20227;-73
2022/05/04 14:21:12;;;;;;;9.30;6.68;;;;;;;;;;5026969;28;20611;-73
2022/05/04 14:23:40;;;;;;;9.65;6.65;;;;;;;;;;5031977;28;20204;-74
2022/05/04 14:26:09;;;;;;;10.82;6.80;;;;;;;;;;5035233;28;20265;-74
2022/05/04 14:28:37;;;;;;;11.43;6.10;;;;;;;;;;5032665;28;20301;-75
2022/05/04 14:31:07;;;;;;;8.80;6.10;;;;;;;;;;5033894;28;20985;-73
2022/05/04 14:33:36;;;;;;;10.07;6.57;;;;;;;;;;5032014;28;20572;-74
2022/05/04 14:36:04;;;;;;;9.07;6.45;;;;;;;;;;5031344;28;20733;-73
2022/05/04 14:38:33;;;;;;;11.07;6.47;;;;;;;;;;5032332;28;20216;-73
2022/05/04 14:41:01;;;;;;;7.75;6.10;;;;;;;;;;5033772;28;20687;-74
2022/05/04 14:43:30;;;;;;;10.02;6.28;;;;;;;;;;5030676;28;20261;-73
2022/05/04 14:45:58;;;;;;;10.07;6.07;;;;;;;;;;5030892;28;20269;-74
2022/05/04 14:48:29;;;;;;;9.55;6.35;;;;;;;;;;5027991;28;20243;-74
2022/05/04 14:50:58;;;;;;;9.85;6.18;;;;;;;;;;5030488;28;20208;-75
2022/05/04 14:53:26;;;;;;;9.35;6.50;;;;;;;;;;5028180;28;20730;-75
2022/05/04 14:55:56;;;;;;;9.52;6.47;;;;;;;;;;5032296;28;20262;-75
2022/05/04 14:58:26;;;;;;;11.10;6.82;;;;;;;;;;5031520;28;20235;-74
2022/05/04 15:00:55;;;;;;;7.85;5.75;;;;;;;;;;5031263;28;20298;-73
2022/05/04 15:06:11;;;;;;;9.27;6.53;;;;;;;;;;5030079;28;20208;-73
2022/05/04 15:08:40;;;;;;;9.52;6.10;;;;;;;;;;5031860;28;20227;-75
2022/05/04 15:11:08;;;;;;;8.45;6.00;;;;;;;;;;5031706;28;20200;-75
2022/05/04 15:13:37;;;;;;;10.25;5.60;;;;;;;;;;5031871;28;20222;-75
2022/05/04 15:16:05;;;;;;;8.10;5.82;;;;;;;;;;5031582;28;20624;-73
2022/05/04 15:18:34;;;;;;;8.63;5.68;;;;;;;;;;5030193;28;20702;-73
2022/05/04 15:21:03;;;;;;;8.00;5.53;;;;;;;;;;5030509;28;20243;-75
2022/05/04 15:23:32;;;;;;;7.07;5.10;;;;;;;;;;5031320;28;20208;-74
2022/05/04 15:26:05;;;;;;;12.15;5.97;;;;;;;;;;5029704;28;20234;-73
2022/05/04 15:28:34;;;;;;;8.10;5.43;;;;;;;;;;5026701;28;20236;-74
2022/05/04 15:31:03;;;;;;;6.68;5.35;;;;;;;;;;5028274;28;20660;-73
2022/05/04 15:33:32;;;;;;;8.93;5.68;;;;;;;;;;5030740;28;20687;-73
2022/05/04 15:36:01;;;;;;;8.20;5.68;;;;;;;;;;5032298;28;20211;-74